Time;durP1;ratioP1;P1;durP2;ratioP2;P2;SDS_P1;SDS_P2;PMS_P1;PMS_P2;Temp;Humidity;BMP_temperature;BMP_pressure;BME280_temperature;BME280_humidity;BME280_pressure;Samples;Min_cycle;Max_cycle;Signal;HPM_P1;HPM_P2
2022/08/12 00:44:51;;;;;;;8.73;3.67;;;;;;;;;;5030043;28;20025;-57
2022/08/12 00:47:18;;;;;;;7.32;3.83;;;;;;;;;;5026286;28;20033;-57
2022/08/12 00:49:44;;;;;;;4.80;3.53;;;;;;;;;;5029981;28;20112;-59
2022/08/12 00:52:10;;;;;;;6.70;3.80;;;;;;;;;;5031802;28;20029;-56
2022/08/12 00:54:55;;;;;;;4.38;3.97;;;;;;;;;;5031272;28;20547;-58
2022/08/12 00:57:24;;;;;;;5.97;3.55;;;;;;;;;;5032386;28;20037;-57
2022/08/12 00:59:59;;;;;;;4.70;3.78;;;;;;;;;;5031346;28;20480;-57
2022/08/12 01:02:30;;;;;;;5.38;3.78;;;;;;;;;;5029053;28;20561;-57
2022/08/12 01:13:16;;;;;;;5.07;3.55;;;;;;;;;;5030094;28;20521;-59
2022/08/12 01:15:44;;;;;;;6.05;3.55;;;;;;;;;;5033005;28;20163;-57
2022/08/12 01:18:14;;;;;;;5.57;3.53;;;;;;;;;;5029199;28;20029;-57
2022/08/12 01:20:46;;;;;;;4.72;3.33;;;;;;;;;;5034409;28;20021;-57
2022/08/12 01:23:40;;;;;;;4.47;3.35;;;;;;;;;;5032645;28;20072;-58
2022/08/12 01:26:09;;;;;;;6.88;4.10;;;;;;;;;;5029336;28;20127;-56
2022/08/12 01:28:37;;;;;;;5.32;3.40;;;;;;;;;;5032668;28;20445;-56
2022/08/12 01:31:05;;;;;;;4.28;3.40;;;;;;;;;;5039296;28;20506;-56
2022/08/12 01:34:05;;;;;;;4.95;3.50;;;;;;;;;;5032444;28;20261;-57
2022/08/12 01:36:40;;;;;;;5.00;3.50;;;;;;;;;;5031618;28;20033;-57
2022/08/12 01:39:06;;;;;;;4.65;3.00;;;;;;;;;;5033290;28;20056;-56
2022/08/12 01:41:42;;;;;;;5.20;3.50;;;;;;;;;;5032985;28;20098;-57
2022/08/12 01:44:09;;;;;;;6.50;3.40;;;;;;;;;;5028665;28;20315;-58
2022/08/12 01:47:17;;;;;;;4.35;3.80;;;;;;;;;;5031644;28;20430;-57
2022/08/12 01:50:04;;;;;;;5.38;3.75;;;;;;;;;;5015627;28;20049;-57
2022/08/12 01:53:10;;;;;;;5.50;3.40;;;;;;;;;;5031267;28;20048;-57
2022/08/12 01:55:41;;;;;;;4.82;3.75;;;;;;;;;;5015925;28;20037;-57
2022/08/12 01:58:26;;;;;;;4.82;3.75;;;;;;;;;;5011013;28;20091;-58
2022/08/12 02:01:06;;;;;;;6.60;3.75;;;;;;;;;;5025498;28;20033;-57
2022/08/12 02:13:20;;;;;;;4.43;3.30;;;;;;;;;;5030040;28;20049;-57
2022/08/12 02:16:01;;;;;;;4.50;3.65;;;;;;;;;;5033626;28;20033;-57
2022/08/12 02:18:49;;;;;;;5.25;4.10;;;;;;;;;;5033263;28;20032;-57
2022/08/12 02:21:37;;;;;;;5.93;4.03;;;;;;;;;;5028532;28;20041;-57
2022/08/12 02:24:03;;;;;;;5.22;3.53;;;;;;;;;;5032966;28;20111;-57
2022/08/12 02:26:32;;;;;;;5.35;4.03;;;;;;;;;;5030996;28;20072;-57
2022/08/12 02:28:58;;;;;;;4.40;4.00;;;;;;;;;;5031907;28;20112;-57
2022/08/12 02:31:27;;;;;;;5.95;4.00;;;;;;;;;;5033659;28;20029;-57
2022/08/12 02:33:53;;;;;;;6.60;4.03;;;;;;;;;;5034008;28;20059;-57
2022/08/12 02:36:19;;;;;;;7.65;4.20;;;;;;;;;;5030926;28;20037;-57
2022/08/12 02:38:46;;;;;;;6.22;4.05;;;;;;;;;;5033192;28;20029;-57
2022/08/12 02:41:15;;;;;;;5.00;3.95;;;;;;;;;;5031189;28;20022;-58
2022/08/12 02:43:51;;;;;;;5.60;4.32;;;;;;;;;;5031345;28;20048;-58
2022/08/12 02:46:26;;;;;;;5.70;4.32;;;;;;;;;;5032350;28;20525;-58
2022/08/12 02:48:56;;;;;;;5.88;3.90;;;;;;;;;;5030002;28;20072;-58
2022/08/12 02:51:28;;;;;;;5.88;4.18;;;;;;;;;;5030226;28;20037;-57
2022/08/12 02:53:57;;;;;;;10.25;4.20;;;;;;;;;;5030334;28;20412;-58
2022/08/12 02:56:22;;;;;;;5.38;4.15;;;;;;;;;;5030132;28;20040;-58
2022/08/12 02:58:48;;;;;;;4.47;3.85;;;;;;;;;;5030157;28;20399;-58
2022/08/12 03:01:16;;;;;;;5.38;3.92;;;;;;;;;;5035648;28;20342;-58
2022/08/12 03:03:41;;;;;;;5.28;4.28;;;;;;;;;;5036481;28;20203;-58
2022/08/12 03:06:11;;;;;;;4.75;4.35;;;;;;;;;;5031019;28;20212;-58
2022/08/12 03:08:42;;;;;;;5.28;3.90;;;;;;;;;;5028571;28;20121;-58
2022/08/12 03:11:32;;;;;;;5.10;4.15;;;;;;;;;;5032194;28;20519;-58
2022/08/12 03:14:00;;;;;;;4.53;3.97;;;;;;;;;;5024046;28;20552;-58
2022/08/12 03:16:29;;;;;;;5.53;4.25;;;;;;;;;;5035525;28;20388;-58
2022/08/12 03:18:55;;;;;;;5.47;4.22;;;;;;;;;;5037545;28;20083;-58
2022/08/12 03:21:23;;;;;;;8.68;4.20;;;;;;;;;;5031404;28;20048;-58
2022/08/12 03:23:53;;;;;;;5.22;3.97;;;;;;;;;;5030494;28;20029;-58
2022/08/12 03:26:19;;;;;;;;;;;;;;;;;;5031765;28;20025;-58
2022/08/12 03:28:52;;;;;;;5.00;4.18;;;;;;;;;;5032632;28;19913;-58
2022/08/12 03:31:28;;;;;;;7.47;4.95;;;;;;;;;;5028983;28;20204;-58
2022/08/12 03:33:59;;;;;;;6.88;4.78;;;;;;;;;;5035124;28;20120;-58
2022/08/12 03:36:27;;;;;;;6.32;4.30;;;;;;;;;;5031222;28;20033;-58
2022/08/12 03:41:47;;;;;;;6.43;4.20;;;;;;;;;;5029294;28;20060;-58
2022/08/12 04:01:08;;;;;;;8.40;4.22;;;;;;;;;;5030223;28;20422;-58
2022/08/12 04:03:52;;;;;;;9.02;4.50;;;;;;;;;;5028788;28;20021;-58
2022/08/12 04:06:23;;;;;;;5.13;4.22;;;;;;;;;;5027318;28;20029;-58
2022/08/12 04:08:56;;;;;;;6.05;5.45;;;;;;;;;;5032140;28;20033;-58
2022/08/12 04:14:12;;;;;;;7.55;4.57;;;;;;;;;;5033455;28;20530;-58
2022/08/12 04:16:39;;;;;;;5.00;4.05;;;;;;;;;;5031213;28;20089;-58
2022/08/12 04:19:06;;;;;;;5.03;4.43;;;;;;;;;;5028823;28;20026;-58
2022/08/12 04:21:32;;;;;;;6.72;5.18;;;;;;;;;;5027179;28;20179;-57
2022/08/12 04:23:58;;;;;;;8.73;4.50;;;;;;;;;;5031174;28;20441;-58
2022/08/12 04:26:25;;;;;;;4.82;4.25;;;;;;;;;;5031443;28;20095;-57
2022/08/12 04:28:50;;;;;;;5.22;4.15;;;;;;;;;;5029344;28;20458;-58
2022/08/12 04:31:16;;;;;;;7.57;6.78;;;;;;;;;;5031184;28;20108;-58
2022/08/12 04:33:42;;;;;;;8.27;5.07;;;;;;;;;;5031467;28;20028;-57
2022/08/12 04:36:08;;;;;;;5.70;4.50;;;;;;;;;;5032128;28;20029;-58
2022/08/12 04:38:35;;;;;;;7.32;4.57;;;;;;;;;;5028322;28;20047;-58
2022/08/12 04:41:04;;;;;;;5.82;4.43;;;;;;;;;;5027644;28;20591;-58
2022/08/12 04:43:30;;;;;;;5.55;4.20;;;;;;;;;;5034780;28;20099;-58
2022/08/12 04:45:55;;;;;;;6.25;4.03;;;;;;;;;;5029470;28;20487;-57
2022/08/12 04:48:21;;;;;;;6.32;4.35;;;;;;;;;;5030047;28;20379;-59
2022/08/12 04:50:46;;;;;;;8.90;4.20;;;;;;;;;;5028236;28;20025;-55
2022/08/12 04:53:12;;;;;;;5.47;4.10;;;;;;;;;;5029205;28;20132;-59
2022/08/12 04:55:39;;;;;;;5.40;4.07;;;;;;;;;;5031687;28;20040;-59
2022/08/12 04:58:08;;;;;;;6.68;4.03;;;;;;;;;;5030543;28;20021;-59
2022/08/12 05:00:35;;;;;;;5.57;4.05;;;;;;;;;;5029797;28;20033;-59
2022/08/12 05:03:00;;;;;;;6.78;4.30;;;;;;;;;;5030487;28;20440;-59
2022/08/12 05:05:27;;;;;;;9.90;4.72;;;;;;;;;;5029663;28;20104;-59
2022/08/12 05:07:52;;;;;;;12.07;8.02;;;;;;;;;;5026845;28;20139;-60
2022/08/12 05:10:20;;;;;;;6.22;4.63;;;;;;;;;;5027978;28;20077;-59
2022/08/12 05:12:52;;;;;;;5.15;3.92;;;;;;;;;;5028480;28;20025;-60
2022/08/12 05:15:18;;;;;;;6.78;4.68;;;;;;;;;;5029084;28;20472;-59
2022/08/12 05:17:43;;;;;;;9.05;5.35;;;;;;;;;;5028062;28;20027;-60
2022/08/12 05:20:11;;;;;;;7.75;4.53;;;;;;;;;;5028779;28;20029;-59
2022/08/12 05:22:37;;;;;;;6.47;4.30;;;;;;;;;;5028262;28;20017;-59
2022/08/12 05:25:05;;;;;;;5.95;4.57;;;;;;;;;;5029339;28;20025;-59
2022/08/12 05:27:31;;;;;;;10.00;5.10;;;;;;;;;;5028478;28;20064;-60
2022/08/12 05:29:57;;;;;;;9.25;4.82;;;;;;;;;;5028902;28;20017;-59
2022/08/12 05:32:24;;;;;;;6.40;5.25;;;;;;;;;;5027733;28;20399;-59
2022/08/12 05:34:52;;;;;;;5.78;5.00;;;;;;;;;;5029101;28;20029;-61
2022/08/12 05:37:17;;;;;;;9.98;5.50;;;;;;;;;;5032237;28;20025;-61
2022/08/12 05:39:43;;;;;;;6.63;4.97;;;;;;;;;;5031897;28;20063;-58
2022/08/12 05:42:08;;;;;;;6.43;4.88;;;;;;;;;;5031694;28;20025;-58
2022/08/12 05:44:34;;;;;;;8.35;4.50;;;;;;;;;;5032465;28;20052;-60
2022/08/12 05:47:00;;;;;;;11.27;4.32;;;;;;;;;;5032094;28;20494;-59
2022/08/12 05:49:25;;;;;;;9.90;4.00;;;;;;;;;;5031339;28;20108;-60
2022/08/12 05:51:51;;;;;;;8.15;4.60;;;;;;;;;;5031446;28;20108;-58
2022/08/12 05:54:17;;;;;;;9.48;3.83;;;;;;;;;;5032326;28;20407;-58
2022/08/12 05:56:43;;;;;;;11.77;5.68;;;;;;;;;;5032206;28;20079;-59
2022/08/12 05:59:11;;;;;;;11.10;4.75;;;;;;;;;;5031720;28;20025;-59
2022/08/12 06:01:37;;;;;;;11.80;4.18;;;;;;;;;;5023120;28;20037;-59
2022/08/12 06:04:03;;;;;;;7.22;4.35;;;;;;;;;;5031989;28;20032;-59
2022/08/12 06:06:33;;;;;;;10.75;4.68;;;;;;;;;;5032086;28;20045;-59
2022/08/12 06:08:59;;;;;;;8.10;5.25;;;;;;;;;;5030176;28;20032;-59
2022/08/12 06:11:25;;;;;;;12.02;4.00;;;;;;;;;;5030791;28;20055;-59
2022/08/12 06:13:52;;;;;;;6.40;3.70;;;;;;;;;;5032165;28;20064;-59
2022/08/12 06:16:20;;;;;;;7.28;3.95;;;;;;;;;;5031821;28;20064;-60
2022/08/12 06:18:46;;;;;;;9.07;4.53;;;;;;;;;;5031399;28;20056;-59
2022/08/12 06:21:15;;;;;;;7.47;4.10;;;;;;;;;;5031164;28;20021;-59
2022/08/12 06:23:41;;;;;;;5.25;3.75;;;;;;;;;;5031740;28;20471;-59
2022/08/12 06:26:11;;;;;;;7.80;3.70;;;;;;;;;;5030525;28;20563;-59
2022/08/12 06:28:41;;;;;;;8.18;3.20;;;;;;;;;;5030955;28;20438;-59
2022/08/12 06:31:08;;;;;;;7.65;3.53;;;;;;;;;;5027067;28;20064;-61
2022/08/12 06:33:34;;;;;;;11.18;4.90;;;;;;;;;;5031279;28;20030;-59
2022/08/12 06:36:00;;;;;;;6.68;4.32;;;;;;;;;;5031724;28;20653;-60
2022/08/12 06:38:27;;;;;;;10.27;5.68;;;;;;;;;;5030983;28;20076;-59
2022/08/12 06:43:45;;;;;;;6.63;4.45;;;;;;;;;;5037555;28;20148;-59
2022/08/12 06:46:12;;;;;;;11.43;4.57;;;;;;;;;;5031431;28;20029;-59
2022/08/12 06:48:40;;;;;;;7.00;3.55;;;;;;;;;;5029523;28;20498;-59
2022/08/12 06:51:07;;;;;;;7.55;3.47;;;;;;;;;;5030696;28;20043;-59
2022/08/12 06:53:33;;;;;;;5.57;3.38;;;;;;;;;;5031381;28;20165;-60
2022/08/12 06:55:59;;;;;;;7.15;3.50;;;;;;;;;;5031240;28;20213;-60
2022/08/12 06:58:26;;;;;;;7.72;3.78;;;;;;;;;;5029100;28;20375;-60
2022/08/12 07:00:54;;;;;;;6.80;3.03;;;;;;;;;;5030729;28;20029;-60
2022/08/12 07:03:24;;;;;;;8.18;3.33;;;;;;;;;;5030706;28;20430;-60
2022/08/12 07:05:50;;;;;;;12.77;3.78;;;;;;;;;;5031224;28;20049;-59
2022/08/12 07:08:16;;;;;;;12.30;3.97;;;;;;;;;;5028899;28;20056;-60
2022/08/12 07:10:44;;;;;;;10.93;3.50;;;;;;;;;;5030230;28;20391;-60
2022/08/12 07:13:10;;;;;;;7.80;3.50;;;;;;;;;;5031065;28;20051;-59
2022/08/12 07:15:36;;;;;;;10.90;3.80;;;;;;;;;;5030913;28;20021;-60
2022/08/12 07:20:34;;;;;;;7.57;3.58;;;;;;;;;;5030760;28;20021;-60
2022/08/12 07:23:02;;;;;;;6.05;3.17;;;;;;;;;;5030332;28;20017;-60
2022/08/12 07:25:30;;;;;;;7.40;2.90;;;;;;;;;;5030600;28;20072;-60
2022/08/12 07:27:57;;;;;;;11.35;3.33;;;;;;;;;;5028487;28;20060;-59
2022/08/12 07:30:23;;;;;;;4.50;3.20;;;;;;;;;;5030484;28;20026;-60
2022/08/12 07:32:50;;;;;;;4.85;3.38;;;;;;;;;;5029424;28;20498;-60
2022/08/12 07:35:18;;;;;;;8.15;4.38;;;;;;;;;;5030359;28;20029;-59
2022/08/12 07:37:43;;;;;;;10.80;3.45;;;;;;;;;;5029559;28;20048;-60
2022/08/12 07:40:10;;;;;;;6.20;3.10;;;;;;;;;;5030169;28;20417;-60
2022/08/12 07:42:37;;;;;;;5.75;3.25;;;;;;;;;;5029760;28;20025;-60
2022/08/12 07:45:06;;;;;;;6.97;3.28;;;;;;;;;;5030329;28;20030;-59
2022/08/12 07:47:33;;;;;;;7.82;3.30;;;;;;;;;;5023258;28;20107;-59
2022/08/12 07:50:00;;;;;;;5.53;3.45;;;;;;;;;;5030148;28;20037;-59
2022/08/12 07:52:26;;;;;;;6.97;3.97;;;;;;;;;;5029117;28;20064;-60
2022/08/12 07:54:52;;;;;;;4.43;3.05;;;;;;;;;;5030102;28;20493;-60
2022/08/12 07:57:18;;;;;;;8.50;3.70;;;;;;;;;;5029632;28;20029;-60
2022/08/12 07:59:44;;;;;;;5.40;3.42;;;;;;;;;;5029556;28;20108;-60
2022/08/12 08:02:09;;;;;;;6.13;3.33;;;;;;;;;;5028560;28;20022;-59
2022/08/12 08:07:20;;;;;;;8.95;3.13;;;;;;;;;;5027418;28;20036;-60
2022/08/12 08:09:45;;;;;;;4.60;2.92;;;;;;;;;;5029576;28;20387;-60
2022/08/12 08:14:55;;;;;;;3.78;3.13;;;;;;;;;;5030130;28;20040;-59
2022/08/12 08:17:21;;;;;;;3.17;2.88;;;;;;;;;;5029054;28;20022;-59
2022/08/12 08:19:51;;;;;;;4.53;2.80;;;;;;;;;;5029469;28;20450;-60
2022/08/12 08:22:21;;;;;;;4.82;2.95;;;;;;;;;;5028977;28;20028;-59
2022/08/12 08:24:56;;;;;;;6.07;3.10;;;;;;;;;;5029235;28;20025;-59
2022/08/12 08:27:25;;;;;;;5.38;3.25;;;;;;;;;;5029476;28;20459;-59
2022/08/12 08:29:50;;;;;;;4.82;3.20;;;;;;;;;;5029182;28;20057;-59
2022/08/12 08:32:16;;;;;;;3.85;3.30;;;;;;;;;;5028087;28;20486;-59
2022/08/12 08:34:44;;;;;;;7.93;3.22;;;;;;;;;;5029259;28;20399;-59
2022/08/12 08:37:14;;;;;;;5.30;2.88;;;;;;;;;;5029132;28;20032;-59
2022/08/12 08:39:40;;;;;;;;;;;;;;;;;;5029287;28;20034;-59
2022/08/12 08:44:49;;;;;;;5.32;2.95;;;;;;;;;;5023302;28;20036;-59
2022/08/12 08:47:14;;;;;;;4.63;2.97;;;;;;;;;;5028737;28;20100;-59
2022/08/12 08:49:40;;;;;;;7.43;2.75;;;;;;;;;;5029208;28;20025;-59
2022/08/12 08:52:08;;;;;;;3.67;2.92;;;;;;;;;;5028280;28;20037;-59
2022/08/12 08:54:36;;;;;;;4.95;2.90;;;;;;;;;;5028867;28;20029;-59
2022/08/12 08:57:03;;;;;;;3.00;2.70;;;;;;;;;;5029105;28;20024;-59
2022/08/12 08:59:28;;;;;;;6.68;3.00;;;;;;;;;;5028981;28;20124;-59
2022/08/12 09:01:54;;;;;;;9.55;3.15;;;;;;;;;;5027756;28;20518;-59
2022/08/12 09:04:19;;;;;;;4.93;2.97;;;;;;;;;;5027947;28;20113;-59
2022/08/12 09:06:46;;;;;;;4.57;2.90;;;;;;;;;;5029057;28;20077;-59
2022/08/12 09:09:13;;;;;;;6.25;3.10;;;;;;;;;;5028461;28;20063;-59
2022/08/12 09:14:23;;;;;;;8.85;2.88;;;;;;;;;;5031492;28;20033;-59
2022/08/12 09:16:49;;;;;;;4.95;3.00;;;;;;;;;;5032559;28;20017;-59
2022/08/12 09:19:16;;;;;;;8.32;3.55;;;;;;;;;;5032419;28;20479;-60
2022/08/12 09:21:46;;;;;;;4.07;2.83;;;;;;;;;;5031602;28;20021;-59
2022/08/12 09:24:12;;;;;;;3.03;2.70;;;;;;;;;;5029566;28;20116;-59
2022/08/12 09:26:37;;;;;;;3.53;2.63;;;;;;;;;;5032909;28;20379;-59
2022/08/12 09:29:03;;;;;;;4.15;2.78;;;;;;;;;;5032593;28;20116;-59
2022/08/12 09:31:29;;;;;;;3.13;2.83;;;;;;;;;;5031366;28;21271;-59
2022/08/12 09:33:54;;;;;;;3.65;2.55;;;;;;;;;;5032447;28;20083;-59
2022/08/12 09:36:21;;;;;;;4.97;2.63;;;;;;;;;;5032147;28;20029;-59
2022/08/12 09:38:46;;;;;;;9.18;3.05;;;;;;;;;;5032231;28;20088;-60
2022/08/12 09:41:14;;;;;;;7.13;2.33;;;;;;;;;;5031642;28;20021;-59
2022/08/12 09:46:26;;;;;;;4.05;2.70;;;;;;;;;;5031862;28;20040;-59
2022/08/12 09:48:52;;;;;;;2.92;2.63;;;;;;;;;;5032116;28;20108;-59
2022/08/12 09:51:19;;;;;;;3.28;2.50;;;;;;;;;;5030821;28;20038;-59
2022/08/12 09:53:46;;;;;;;4.47;2.78;;;;;;;;;;5032432;28;20468;-59
2022/08/12 09:56:16;;;;;;;3.25;2.67;;;;;;;;;;5032366;28;20029;-59
2022/08/12 09:58:41;;;;;;;2.97;2.17;;;;;;;;;;5032037;28;20533;-60
2022/08/12 10:01:07;;;;;;;5.55;2.60;;;;;;;;;;5031039;28;20026;-60
2022/08/12 10:03:35;;;;;;;3.78;2.47;;;;;;;;;;5031438;28;20048;-59
2022/08/12 10:06:05;;;;;;;4.85;2.70;;;;;;;;;;5032048;28;20029;-59
2022/08/12 10:08:33;;;;;;;2.90;2.60;;;;;;;;;;5029963;28;20025;-60
2022/08/12 10:13:47;;;;;;;5.93;2.70;;;;;;;;;;5032357;28;20041;-60
2022/08/12 10:16:24;;;;;;;4.07;2.25;;;;;;;;;;5031607;28;20021;-60
2022/08/12 10:18:56;;;;;;;4.60;2.33;;;;;;;;;;5029415;28;20028;-59
2022/08/12 10:21:35;;;;;;;4.35;2.40;;;;;;;;;;5030059;28;20022;-59
2022/08/12 10:24:03;;;;;;;4.18;2.13;;;;;;;;;;5030312;28;20560;-59
2022/08/12 10:31:59;;;;;;;5.40;2.28;;;;;;;;;;5030472;28;20406;-59
2022/08/12 10:34:25;;;;;;;3.88;2.33;;;;;;;;;;5031493;28;20022;-59
2022/08/12 10:36:57;;;;;;;3.88;2.70;;;;;;;;;;5031224;28;20024;-60
2022/08/12 10:39:24;;;;;;;4.63;2.30;;;;;;;;;;5031147;28;20289;-59
2022/08/12 10:44:35;;;;;;;3.78;2.42;;;;;;;;;;5031051;28;20052;-59
2022/08/12 10:47:01;;;;;;;5.03;2.15;;;;;;;;;;5030838;28;20060;-59
2022/08/12 10:49:33;;;;;;;6.25;2.58;;;;;;;;;;5030614;28;20033;-59
2022/08/12 10:52:01;;;;;;;4.47;2.47;;;;;;;;;;5030351;28;20075;-59
2022/08/12 10:54:27;;;;;;;5.37;2.40;;;;;;;;;;5028482;28;20037;-60
2022/08/12 10:56:56;;;;;;;4.55;2.67;;;;;;;;;;5031139;28;20101;-60
2022/08/12 10:59:22;;;;;;;;;;;;;;;;;;5031052;28;20032;-59
2022/08/12 11:01:48;;;;;;;4.88;2.30;;;;;;;;;;5029876;28;20290;-59
2022/08/12 11:04:14;;;;;;;3.65;2.05;;;;;;;;;;5030455;28;20033;-60
2022/08/12 11:06:43;;;;;;;9.10;2.58;;;;;;;;;;5030967;28;20018;-60
2022/08/12 11:09:09;;;;;;;3.72;2.72;;;;;;;;;;5030460;28;20507;-59
2022/08/12 11:11:35;;;;;;;3.70;2.50;;;;;;;;;;5030019;28;20029;-59
2022/08/12 11:14:00;;;;;;;3.40;2.13;;;;;;;;;;5030575;28;20023;-59
2022/08/12 11:16:28;;;;;;;3.13;2.10;;;;;;;;;;5030205;28;20099;-59
2022/08/12 11:18:53;;;;;;;6.35;2.50;;;;;;;;;;5029003;28;20472;-59
2022/08/12 11:21:18;;;;;;;3.35;2.30;;;;;;;;;;5029725;28;20099;-59
2022/08/12 11:23:44;;;;;;;5.28;3.17;;;;;;;;;;5029029;28;20124;-59
2022/08/12 11:26:09;;;;;;;4.18;2.35;;;;;;;;;;5030294;28;20017;-60
2022/08/12 11:28:35;;;;;;;2.25;1.98;;;;;;;;;;5030151;28;20392;-60
2022/08/12 11:31:06;;;;;;;3.65;2.10;;;;;;;;;;5034428;28;20029;-60
2022/08/12 11:33:32;;;;;;;7.75;2.13;;;;;;;;;;5027804;28;20095;-60
2022/08/12 11:36:07;;;;;;;4.53;2.10;;;;;;;;;;5030472;28;20422;-60
2022/08/12 11:38:33;;;;;;;6.78;2.40;;;;;;;;;;5030046;28;20022;-60
2022/08/12 11:40:59;;;;;;;4.30;2.67;;;;;;;;;;5029747;28;20407;-60
2022/08/12 11:43:24;;;;;;;3.03;2.10;;;;;;;;;;5029602;28;20099;-60
2022/08/12 11:45:50;;;;;;;2.75;2.38;;;;;;;;;;5030217;28;20027;-60
2022/08/12 11:48:15;;;;;;;2.30;2.05;;;;;;;;;;5029345;28;20029;-60
2022/08/12 11:50:43;;;;;;;3.47;1.95;;;;;;;;;;5029965;28;20025;-60
2022/08/12 11:53:09;;;;;;;7.93;2.30;;;;;;;;;;5029616;28;20064;-60
2022/08/12 11:55:34;;;;;;;3.00;2.15;;;;;;;;;;5029845;28;20069;-60
2022/08/12 11:58:00;;;;;;;2.35;1.90;;;;;;;;;;5029208;28;20055;-60
2022/08/12 12:00:25;;;;;;;3.47;2.30;;;;;;;;;;5029741;28;20033;-59
2022/08/12 12:02:51;;;;;;;6.82;2.20;;;;;;;;;;5028842;28;20029;-59
2022/08/12 12:05:18;;;;;;;4.30;2.08;;;;;;;;;;5029586;28;20021;-60
2022/08/12 12:07:44;;;;;;;1.98;1.75;;;;;;;;;;5027949;28;20017;-60
2022/08/12 12:10:12;;;;;;;4.80;2.10;;;;;;;;;;5029684;28;20033;-59
2022/08/12 12:12:37;;;;;;;4.13;2.28;;;;;;;;;;5028943;28;20056;-60
2022/08/12 12:15:05;;;;;;;5.90;2.30;;;;;;;;;;5029308;28;20041;-59
2022/08/12 12:17:34;;;;;;;3.35;2.03;;;;;;;;;;5028532;28;20017;-59
2022/08/12 12:19:59;;;;;;;4.93;2.30;;;;;;;;;;5028427;28;20553;-59
2022/08/12 12:22:25;;;;;;;3.25;2.92;;;;;;;;;;5028935;28;20125;-60
2022/08/12 12:24:50;;;;;;;4.07;2.10;;;;;;;;;;5029309;28;20025;-60
2022/08/12 12:27:19;;;;;;;5.68;3.10;;;;;;;;;;5029322;28;20076;-61
2022/08/12 12:29:45;;;;;;;4.82;2.50;;;;;;;;;;5029317;28;20090;-60
2022/08/12 12:32:11;;;;;;;4.93;2.00;;;;;;;;;;5028251;28;20112;-60
2022/08/12 12:34:37;;;;;;;6.32;2.30;;;;;;;;;;5029439;28;20100;-60
2022/08/12 12:37:03;;;;;;;2.10;1.90;;;;;;;;;;5029654;28;20075;-60
2022/08/12 12:39:28;;;;;;;4.60;2.15;;;;;;;;;;5029169;28;20440;-60
2022/08/12 12:41:54;;;;;;;3.83;2.22;;;;;;;;;;5028682;28;20080;-60
2022/08/12 12:44:19;;;;;;;2.55;1.92;;;;;;;;;;5029036;28;20387;-60
2022/08/12 12:46:44;;;;;;;5.70;2.88;;;;;;;;;;5028575;28;20063;-61
2022/08/12 12:49:10;;;;;;;2.33;2.10;;;;;;;;;;5029703;28;20387;-60
2022/08/12 12:51:35;;;;;;;2.40;2.20;;;;;;;;;;5032657;28;20041;-60
2022/08/12 12:54:00;;;;;;;4.30;2.17;;;;;;;;;;5033829;28;20018;-60
2022/08/12 12:56:26;;;;;;;3.45;2.22;;;;;;;;;;5032908;28;20384;-60
2022/08/12 12:58:53;;;;;;;3.10;2.20;;;;;;;;;;5032742;28;20024;-60
2022/08/12 13:01:24;;;;;;;3.63;2.20;;;;;;;;;;5032380;28;20243;-60
2022/08/12 13:03:55;;;;;;;2.63;2.10;;;;;;;;;;5033284;28;20021;-60
2022/08/12 13:06:28;;;;;;;4.40;2.30;;;;;;;;;;5032568;28;20049;-60
2022/08/12 13:08:54;;;;;;;4.55;2.50;;;;;;;;;;5032774;28;20025;-60
2022/08/12 13:11:21;;;;;;;2.83;1.90;;;;;;;;;;5032276;28;20215;-60
2022/08/12 13:13:48;;;;;;;2.38;1.70;;;;;;;;;;5033130;28;20025;-60
2022/08/12 13:16:20;;;;;;;3.95;1.80;;;;;;;;;;5030381;28;20448;-60
2022/08/12 13:18:47;;;;;;;3.20;2.00;;;;;;;;;;5032795;28;20144;-60
2022/08/12 13:21:16;;;;;;;3.35;2.33;;;;;;;;;;5032206;28;20034;-60
2022/08/12 13:23:44;;;;;;;4.13;2.20;;;;;;;;;;5032393;28;20025;-61
2022/08/12 13:26:11;;;;;;;4.80;2.10;;;;;;;;;;5032973;28;20021;-60
2022/08/12 13:28:36;;;;;;;6.13;2.35;;;;;;;;;;5032490;28;20376;-60
2022/08/12 13:31:02;;;;;;;3.83;2.38;;;;;;;;;;5031992;28;20030;-60
2022/08/12 13:33:29;;;;;;;4.13;2.03;;;;;;;;;;5031854;28;20052;-60
2022/08/12 13:35:59;;;;;;;4.22;2.15;;;;;;;;;;5032707;28;20025;-60
2022/08/12 13:38:34;;;;;;;4.07;2.00;;;;;;;;;;5031981;28;20495;-60
2022/08/12 13:41:01;;;;;;;8.10;2.38;;;;;;;;;;5032106;28;20021;-60
2022/08/12 13:43:26;;;;;;;5.60;2.30;;;;;;;;;;5031759;28;20037;-60
2022/08/12 13:45:51;;;;;;;3.30;2.20;;;;;;;;;;5032524;28;20048;-60
2022/08/12 13:48:17;;;;;;;5.43;2.17;;;;;;;;;;5031491;28;20514;-60
2022/08/12 13:50:42;;;;;;;3.60;2.40;;;;;;;;;;5031604;28;20022;-60
2022/08/12 13:53:13;;;;;;;7.03;2.17;;;;;;;;;;5030447;28;20177;-60
2022/08/12 13:55:44;;;;;;;3.88;2.28;;;;;;;;;;5032014;28;20017;-59
2022/08/12 13:58:16;;;;;;;3.70;2.30;;;;;;;;;;5031773;28;20112;-61
2022/08/12 14:00:52;;;;;;;3.72;2.10;;;;;;;;;;5031627;28;20027;-61
2022/08/12 14:03:22;;;;;;;5.13;2.28;;;;;;;;;;5030596;28;20606;-59
2022/08/12 14:05:48;;;;;;;2.33;1.85;;;;;;;;;;5032225;28;20037;-60
2022/08/12 14:08:15;;;;;;;4.15;2.20;;;;;;;;;;5030378;28;20028;-60
2022/08/12 14:10:45;;;;;;;3.20;2.22;;;;;;;;;;5031884;28;20021;-60
2022/08/12 14:13:26;;;;;;;2.78;2.28;;;;;;;;;;5031625;28;20033;-60
2022/08/12 14:15:59;;;;;;;3.83;2.60;;;;;;;;;;5027158;28;20124;-60
2022/08/12 14:18:29;;;;;;;4.10;2.42;;;;;;;;;;5025553;28;20033;-61
2022/08/12 14:21:02;;;;;;;4.72;2.30;;;;;;;;;;5027960;28;20025;-60
2022/08/12 14:23:33;;;;;;;3.30;2.30;;;;;;;;;;5029247;28;20032;-60
2022/08/12 14:26:00;;;;;;;3.75;2.50;;;;;;;;;;5030040;28;20545;-61
2022/08/12 14:28:29;;;;;;;4.03;2.60;;;;;;;;;;5027878;28;20037;-61
2022/08/12 14:31:01;;;;;;;6.55;2.45;;;;;;;;;;5028913;28;20095;-60
2022/08/12 14:33:32;;;;;;;3.30;2.20;;;;;;;;;;5029702;28;20506;-61
2022/08/12 14:35:59;;;;;;;3.90;2.20;;;;;;;;;;5032008;28;20494;-60
2022/08/12 14:38:36;;;;;;;4.35;2.08;;;;;;;;;;5027639;28;20034;-61
2022/08/12 14:41:03;;;;;;;3.85;2.10;;;;;;;;;;5024784;28;20087;-60
2022/08/12 14:43:37;;;;;;;3.65;2.33;;;;;;;;;;5028189;28;20442;-60
2022/08/12 14:46:23;;;;;;;6.60;2.30;;;;;;;;;;5028976;28;20108;-60
2022/08/12 14:48:53;;;;;;;6.40;2.50;;;;;;;;;;5034413;28;20495;-60
2022/08/12 14:51:21;;;;;;;5.22;2.50;;;;;;;;;;5027811;28;20423;-61
2022/08/12 14:53:49;;;;;;;4.40;2.35;;;;;;;;;;5030100;28;20052;-60
2022/08/12 14:56:16;;;;;;;3.22;2.30;;;;;;;;;;5028237;28;20033;-60
2022/08/12 15:01:37;;;;;;;4.72;2.75;;;;;;;;;;5027943;28;20029;-61
2022/08/12 15:01:43;;;;;;;3.95;2.50;;;;;;;;;;5029173;28;20435;-61
2022/08/12 15:04:10;;;;;;;4.88;2.35;;;;;;;;;;5027866;28;20029;-60
2022/08/12 15:06:36;;;;;;;4.50;2.38;;;;;;;;;;5030146;28;20113;-60
2022/08/12 15:09:03;;;;;;;3.88;2.35;;;;;;;;;;5027938;28;20029;-60
2022/08/12 15:11:28;;;;;;;3.63;2.33;;;;;;;;;;5028684;28;20030;-60
2022/08/12 15:13:54;;;;;;;4.40;2.42;;;;;;;;;;5027866;28;20033;-60
2022/08/12 15:16:20;;;;;;;5.82;2.20;;;;;;;;;;5029695;28;20120;-60
2022/08/12 15:18:45;;;;;;;7.15;3.00;;;;;;;;;;5029909;28;20033;-60
2022/08/12 15:21:11;;;;;;;4.82;2.42;;;;;;;;;;5029325;28;20025;-60
2022/08/12 15:23:38;;;;;;;8.00;2.47;;;;;;;;;;5028412;28;20028;-60
2022/08/12 15:26:10;;;;;;;3.67;2.40;;;;;;;;;;5030533;28;20104;-60
2022/08/12 15:28:39;;;;;;;3.25;2.60;;;;;;;;;;5030050;28;20057;-60
2022/08/12 15:31:05;;;;;;;5.07;2.63;;;;;;;;;;5028561;28;20549;-60
2022/08/12 15:33:31;;;;;;;5.82;2.30;;;;;;;;;;5028768;28;20108;-61
2022/08/12 15:35:57;;;;;;;4.80;3.35;;;;;;;;;;5030568;28;20113;-60
2022/08/12 15:38:28;;;;;;;5.00;3.17;;;;;;;;;;5034382;28;20115;-60
2022/08/12 15:40:55;;;;;;;3.08;2.45;;;;;;;;;;5028685;28;20129;-60
2022/08/12 15:43:23;;;;;;;3.03;2.30;;;;;;;;;;5029899;28;20506;-60
2022/08/12 15:45:48;;;;;;;5.25;2.35;;;;;;;;;;5030459;28;20037;-60
2022/08/12 15:48:14;;;;;;;5.82;2.38;;;;;;;;;;5026565;28;20083;-61
2022/08/12 15:50:42;;;;;;;4.15;2.08;;;;;;;;;;5027035;28;20025;-61
2022/08/12 15:53:08;;;;;;;3.15;2.08;;;;;;;;;;5028319;28;20037;-60
2022/08/12 15:55:34;;;;;;;5.85;2.28;;;;;;;;;;5029596;28;20034;-56
2022/08/12 15:58:00;;;;;;;6.80;2.20;;;;;;;;;;5023523;28;20534;-61
2022/08/12 16:00:26;;;;;;;4.55;2.30;;;;;;;;;;5023253;28;20041;-60
2022/08/12 16:02:52;;;;;;;4.93;2.38;;;;;;;;;;5026672;28;20021;-64
2022/08/12 16:05:19;;;;;;;3.55;2.22;;;;;;;;;;5028328;28;20134;-60
2022/08/12 16:07:48;;;;;;;4.32;2.20;;;;;;;;;;5024621;28;20041;-60
2022/08/12 16:10:14;;;;;;;2.53;2.10;;;;;;;;;;5027793;28;20115;-63
2022/08/12 16:12:42;;;;;;;3.80;2.20;;;;;;;;;;5024875;28;20040;-60
2022/08/12 16:15:09;;;;;;;8.10;2.47;;;;;;;;;;5027245;28;20025;-60
2022/08/12 16:17:36;;;;;;;3.90;2.30;;;;;;;;;;5028210;28;20037;-60
2022/08/12 16:20:01;;;;;;;4.72;1.77;;;;;;;;;;5029221;28;20519;-60
2022/08/12 16:22:27;;;;;;;3.05;2.08;;;;;;;;;;5028590;28;20029;-60
2022/08/12 16:24:53;;;;;;;11.52;2.10;;;;;;;;;;5028108;28;20032;-59
2022/08/12 16:27:18;;;;;;;4.47;1.88;;;;;;;;;;5028848;28;20029;-60
2022/08/12 16:29:44;;;;;;;2.95;2.00;;;;;;;;;;5028975;28;20537;-60
2022/08/12 16:32:09;;;;;;;3.58;1.90;;;;;;;;;;5027244;28;20057;-60
2022/08/12 16:34:35;;;;;;;4.00;2.17;;;;;;;;;;5028814;28;20487;-60
2022/08/12 16:37:12;;;;;;;4.75;2.17;;;;;;;;;;5027902;28;20519;-59
2022/08/12 16:39:37;;;;;;;3.17;2.05;;;;;;;;;;5027302;28;20033;-57
2022/08/12 16:42:03;;;;;;;2.28;1.70;;;;;;;;;;5029554;28;20068;-58
2022/08/12 16:44:31;;;;;;;4.00;2.30;;;;;;;;;;5028357;28;20475;-57